sensor_id;sensor_type;location;lat;lon;timestamp;temperature;humidity
1976;DHT22;988;48.016;7.800;2022-10-31T00:02:02;11.80;99.90
1976;DHT22;988;48.016;7.800;2022-10-31T00:04:28;11.70;99.90
1976;DHT22;988;48.016;7.800;2022-10-31T00:06:53;11.70;99.90
1976;DHT22;988;48.016;7.800;2022-10-31T00:09:19;11.70;99.90
1976;DHT22;988;48.016;7.800;2022-10-31T00:11:44;11.90;99.90
1976;DHT22;988;48.016;7.800;2022-10-31T00:14:10;11.80;99.90
1976;DHT22;988;48.016;7.800;2022-10-31T00:16:36;11.60;99.90
1976;DHT22;988;48.016;7.800;2022-10-31T00:19:04;11.60;99.90
1976;DHT22;988;48.016;7.800;2022-10-31T00:21:31;11.60;99.90
1976;DHT22;988;48.016;7.800;2022-10-31T00:23:58;11.50;99.90
1976;DHT22;988;48.016;7.800;2022-10-31T00:26:26;11.50;99.90
1976;DHT22;988;48.016;7.800;2022-10-31T00:28:51;11.60;99.90
1976;DHT22;988;48.016;7.800;2022-10-31T00:31:17;11.50;99.90
1976;DHT22;988;48.016;7.800;2022-10-31T00:33:43;11.60;99.90
1976;DHT22;988;48.016;7.800;2022-10-31T00:36:15;11.40;99.90
1976;DHT22;988;48.016;7.800;2022-10-31T00:38:42;11.50;99.90
1976;DHT22;988;48.016;7.800;2022-10-31T00:41:08;11.50;99.90
1976;DHT22;988;48.016;7.800;2022-10-31T00:43:34;11.50;99.90
1976;DHT22;988;48.016;7.800;2022-10-31T00:45:59;11.50;99.90
1976;DHT22;988;48.016;7.800;2022-10-31T00:48:25;11.60;99.90
1976;DHT22;988;48.016;7.800;2022-10-31T00:50:51;11.70;99.90
1976;DHT22;988;48.016;7.800;2022-10-31T00:53:16;11.60;99.90
1976;DHT22;988;48.016;7.800;2022-10-31T00:55:42;11.50;99.90
1976;DHT22;988;48.016;7.800;2022-10-31T00:58:07;11.60;99.90
1976;DHT22;988;48.016;7.800;2022-10-31T01:00:33;11.60;99.90
1976;DHT22;988;48.016;7.800;2022-10-31T01:02:59;11.70;99.90
1976;DHT22;988;48.016;7.800;2022-10-31T01:05:24;11.70;99.90
1976;DHT22;988;48.016;7.800;2022-10-31T01:07:50;11.60;99.90
1976;DHT22;988;48.016;7.800;2022-10-31T01:10:15;11.50;99.90
1976;DHT22;988;48.016;7.800;2022-10-31T01:12:43;11.40;99.90
1976;DHT22;988;48.016;7.800;2022-10-31T01:15:11;11.20;99.90
1976;DHT22;988;48.016;7.800;2022-10-31T01:17:37;11.30;99.90
1976;DHT22;988;48.016;7.800;2022-10-31T01:20:04;11.30;99.90
1976;DHT22;988;48.016;7.800;2022-10-31T01:22:30;11.20;99.90
1976;DHT22;988;48.016;7.800;2022-10-31T01:24:56;11.10;99.90
1976;DHT22;988;48.016;7.800;2022-10-31T01:27:21;11.10;99.90
1976;DHT22;988;48.016;7.800;2022-10-31T01:29:47;11.10;99.90
1976;DHT22;988;48.016;7.800;2022-10-31T01:32:13;11.30;99.90
1976;DHT22;988;48.016;7.800;2022-10-31T01:34:38;11.20;99.90
1976;DHT22;988;48.016;7.800;2022-10-31T01:37:04;11.10;99.90
1976;DHT22;988;48.016;7.800;2022-10-31T01:39:29;11.10;99.90
1976;DHT22;988;48.016;7.800;2022-10-31T01:41:55;11.10;99.90
1976;DHT22;988;48.016;7.800;2022-10-31T01:47:03;10.90;99.90
1976;DHT22;988;48.016;7.800;2022-10-31T01:49:38;10.90;99.90
1976;DHT22;988;48.016;7.800;2022-10-31T01:52:18;10.80;99.90
1976;DHT22;988;48.016;7.800;2022-10-31T01:54:49;10.80;99.90
1976;DHT22;988;48.016;7.800;2022-10-31T01:57:18;10.90;99.90
1976;DHT22;988;48.016;7.800;2022-10-31T01:59:49;10.80;99.90
1976;DHT22;988;48.016;7.800;2022-10-31T02:02:18;10.90;99.90
1976;DHT22;988;48.016;7.800;2022-10-31T02:04:45;10.90;99.90
1976;DHT22;988;48.016;7.800;2022-10-31T02:07:19;10.90;99.90
1976;DHT22;988;48.016;7.800;2022-10-31T02:09:47;10.90;99.90
1976;DHT22;988;48.016;7.800;2022-10-31T02:12:15;10.90;99.90
1976;DHT22;988;48.016;7.800;2022-10-31T02:14:41;10.90;99.90
1976;DHT22;988;48.016;7.800;2022-10-31T02:17:07;10.90;99.90
1976;DHT22;988;48.016;7.800;2022-10-31T02:30:16;11.10;99.90
1976;DHT22;988;48.016;7.800;2022-10-31T02:35:33;11.00;99.90
1976;DHT22;988;48.016;7.800;2022-10-31T02:40:51;11.00;99.90
1976;DHT22;988;48.016;7.800;2022-10-31T02:43:26;11.10;99.90
1976;DHT22;988;48.016;7.800;2022-10-31T02:46:03;11.30;99.90
1976;DHT22;988;48.016;7.800;2022-10-31T02:48:33;11.20;99.90
1976;DHT22;988;48.016;7.800;2022-10-31T02:51:03;11.20;99.90
1976;DHT22;988;48.016;7.800;2022-10-31T02:53:33;11.00;99.90
1976;DHT22;988;48.016;7.800;2022-10-31T02:56:11;10.90;99.90
1976;DHT22;988;48.016;7.800;2022-10-31T02:58:42;10.80;99.90
1976;DHT22;988;48.016;7.800;2022-10-31T03:01:20;10.80;99.90
1976;DHT22;988;48.016;7.800;2022-10-31T03:10:04;10.60;99.90
1976;DHT22;988;48.016;7.800;2022-10-31T03:12:49;10.60;99.90
1976;DHT22;988;48.016;7.800;2022-10-31T03:15:43;10.60;99.90
1976;DHT22;988;48.016;7.800;2022-10-31T03:20:42;10.80;99.90
1976;DHT22;988;48.016;7.800;2022-10-31T03:23:13;11.10;99.90
1976;DHT22;988;48.016;7.800;2022-10-31T03:25:39;11.00;99.90
1976;DHT22;988;48.016;7.800;2022-10-31T03:28:06;10.90;99.90
1976;DHT22;988;48.016;7.800;2022-10-31T03:30:35;10.70;99.90
1976;DHT22;988;48.016;7.800;2022-10-31T03:33:03;10.70;99.90
1976;DHT22;988;48.016;7.800;2022-10-31T03:35:32;10.80;99.90
1976;DHT22;988;48.016;7.800;2022-10-31T03:38:00;10.90;99.90
1976;DHT22;988;48.016;7.800;2022-10-31T03:40:27;10.90;99.90
1976;DHT22;988;48.016;7.800;2022-10-31T03:43:02;10.80;99.90
1976;DHT22;988;48.016;7.800;2022-10-31T03:45:30;10.90;99.90
1976;DHT22;988;48.016;7.800;2022-10-31T03:47:58;11.00;99.90
1976;DHT22;988;48.016;7.800;2022-10-31T03:50:28;11.10;99.90
1976;DHT22;988;48.016;7.800;2022-10-31T03:52:57;11.10;99.90
1976;DHT22;988;48.016;7.800;2022-10-31T03:58:12;11.00;99.90
1976;DHT22;988;48.016;7.800;2022-10-31T04:00:41;11.00;99.90
1976;DHT22;988;48.016;7.800;2022-10-31T04:03:19;10.90;99.90
1976;DHT22;988;48.016;7.800;2022-10-31T04:05:47;10.80;99.90
1976;DHT22;988;48.016;7.800;2022-10-31T04:08:17;10.60;99.90
1976;DHT22;988;48.016;7.800;2022-10-31T04:10:47;10.60;99.90
1976;DHT22;988;48.016;7.800;2022-10-31T04:13:17;10.70;99.90
1976;DHT22;988;48.016;7.800;2022-10-31T04:15:45;10.60;99.90
1976;DHT22;988;48.016;7.800;2022-10-31T04:18:11;10.60;99.90
1976;DHT22;988;48.016;7.800;2022-10-31T04:20:40;10.50;99.90
1976;DHT22;988;48.016;7.800;2022-10-31T04:23:17;10.60;99.90
1976;DHT22;988;48.016;7.800;2022-10-31T04:25:43;10.80;99.90
1976;DHT22;988;48.016;7.800;2022-10-31T04:28:09;10.80;99.90
1976;DHT22;988;48.016;7.800;2022-10-31T04:30:34;10.90;99.90
1976;DHT22;988;48.016;7.800;2022-10-31T04:33:00;10.80;99.90
1976;DHT22;988;48.016;7.800;2022-10-31T04:35:25;10.60;99.90
1976;DHT22;988;48.016;7.800;2022-10-31T04:37:51;10.60;99.90
1976;DHT22;988;48.016;7.800;2022-10-31T04:40:16;10.50;99.90
1976;DHT22;988;48.016;7.800;2022-10-31T04:42:42;10.40;99.90
1976;DHT22;988;48.016;7.800;2022-10-31T04:45:08;10.40;99.90
1976;DHT22;988;48.016;7.800;2022-10-31T04:47:33;10.40;99.90
1976;DHT22;988;48.016;7.800;2022-10-31T04:49:59;10.40;99.90
1976;DHT22;988;48.016;7.800;2022-10-31T04:52:25;10.40;99.90
1976;DHT22;988;48.016;7.800;2022-10-31T04:54:51;10.50;99.90
1976;DHT22;988;48.016;7.800;2022-10-31T04:57:16;10.40;99.90
1976;DHT22;988;48.016;7.800;2022-10-31T04:59:42;10.50;99.90
1976;DHT22;988;48.016;7.800;2022-10-31T05:02:07;10.30;99.90
1976;DHT22;988;48.016;7.800;2022-10-31T05:04:33;10.30;99.90
1976;DHT22;988;48.016;7.800;2022-10-31T05:06:58;10.40;99.90
1976;DHT22;988;48.016;7.800;2022-10-31T05:09:24;10.40;99.90
1976;DHT22;988;48.016;7.800;2022-10-31T05:11:49;10.30;99.90
1976;DHT22;988;48.016;7.800;2022-10-31T05:14:15;10.40;99.90
1976;DHT22;988;48.016;7.800;2022-10-31T05:16:40;10.30;99.90
1976;DHT22;988;48.016;7.800;2022-10-31T05:19:06;10.30;99.90
1976;DHT22;988;48.016;7.800;2022-10-31T05:21:31;10.30;99.90
1976;DHT22;988;48.016;7.800;2022-10-31T05:23:57;10.40;99.90
1976;DHT22;988;48.016;7.800;2022-10-31T05:26:23;10.30;99.90
1976;DHT22;988;48.016;7.800;2022-10-31T05:28:48;10.20;99.90
1976;DHT22;988;48.016;7.800;2022-10-31T05:31:14;10.50;99.90
1976;DHT22;988;48.016;7.800;2022-10-31T05:33:39;10.40;99.90
1976;DHT22;988;48.016;7.800;2022-10-31T05:36:05;10.30;99.90
1976;DHT22;988;48.016;7.800;2022-10-31T05:38:31;10.30;99.90
1976;DHT22;988;48.016;7.800;2022-10-31T05:40:56;10.40;99.90
1976;DHT22;988;48.016;7.800;2022-10-31T05:43:26;10.40;99.90
1976;DHT22;988;48.016;7.800;2022-10-31T05:45:56;10.40;99.90
1976;DHT22;988;48.016;7.800;2022-10-31T05:48:21;10.40;99.90
1976;DHT22;988;48.016;7.800;2022-10-31T05:50:48;10.40;99.90
1976;DHT22;988;48.016;7.800;2022-10-31T05:53:14;10.50;99.90
1976;DHT22;988;48.016;7.800;2022-10-31T05:55:39;10.50;99.90
1976;DHT22;988;48.016;7.800;2022-10-31T05:58:08;10.60;99.90
1976;DHT22;988;48.016;7.800;2022-10-31T06:00:34;10.60;99.90
1976;DHT22;988;48.016;7.800;2022-10-31T06:03:05;10.60;99.90
1976;DHT22;988;48.016;7.800;2022-10-31T06:05:31;10.70;99.90
1976;DHT22;988;48.016;7.800;2022-10-31T06:07:57;10.70;99.90
1976;DHT22;988;48.016;7.800;2022-10-31T06:10:23;10.80;99.90
1976;DHT22;988;48.016;7.800;2022-10-31T06:12:49;10.80;99.90
1976;DHT22;988;48.016;7.800;2022-10-31T06:15:15;10.90;99.90
1976;DHT22;988;48.016;7.800;2022-10-31T06:17:41;11.00;99.90
1976;DHT22;988;48.016;7.800;2022-10-31T06:20:07;11.00;99.90
1976;DHT22;988;48.016;7.800;2022-10-31T06:22:33;11.10;99.90
1976;DHT22;988;48.016;7.800;2022-10-31T06:24:59;11.30;99.90
1976;DHT22;988;48.016;7.800;2022-10-31T06:27:25;11.40;99.90
1976;DHT22;988;48.016;7.800;2022-10-31T06:29:52;11.60;99.90
1976;DHT22;988;48.016;7.800;2022-10-31T06:32:18;11.60;99.90
1976;DHT22;988;48.016;7.800;2022-10-31T06:34:44;11.60;99.90
1976;DHT22;988;48.016;7.800;2022-10-31T06:37:11;11.50;99.90
1976;DHT22;988;48.016;7.800;2022-10-31T06:39:37;11.40;99.90
1976;DHT22;988;48.016;7.800;2022-10-31T06:42:04;11.70;99.90
1976;DHT22;988;48.016;7.800;2022-10-31T06:44:30;11.70;99.90
1976;DHT22;988;48.016;7.800;2022-10-31T06:46:56;11.90;99.90
1976;DHT22;988;48.016;7.800;2022-10-31T06:49:21;11.90;99.90
1976;DHT22;988;48.016;7.800;2022-10-31T06:51:48;12.00;99.90
1976;DHT22;988;48.016;7.800;2022-10-31T06:54:14;12.20;99.90
1976;DHT22;988;48.016;7.800;2022-10-31T06:56:39;12.30;99.90
1976;DHT22;988;48.016;7.800;2022-10-31T06:59:05;12.30;99.90
1976;DHT22;988;48.016;7.800;2022-10-31T07:01:31;12.50;99.90
1976;DHT22;988;48.016;7.800;2022-10-31T07:03:56;12.70;99.90
1976;DHT22;988;48.016;7.800;2022-10-31T07:06:22;13.00;99.90
1976;DHT22;988;48.016;7.800;2022-10-31T07:08:47;13.10;99.90
1976;DHT22;988;48.016;7.800;2022-10-31T07:11:13;13.50;99.90
1976;DHT22;988;48.016;7.800;2022-10-31T07:13:38;13.70;99.90
1976;DHT22;988;48.016;7.800;2022-10-31T07:16:05;13.50;99.90
1976;DHT22;988;48.016;7.800;2022-10-31T07:18:32;13.70;99.90
1976;DHT22;988;48.016;7.800;2022-10-31T07:20:58;13.80;99.90
1976;DHT22;988;48.016;7.800;2022-10-31T07:23:24;14.20;99.90
1976;DHT22;988;48.016;7.800;2022-10-31T07:25:55;14.50;99.90
1976;DHT22;988;48.016;7.800;2022-10-31T07:28:21;14.80;99.90
1976;DHT22;988;48.016;7.800;2022-10-31T07:30:50;15.40;99.90
1976;DHT22;988;48.016;7.800;2022-10-31T07:33:16;15.60;99.90
1976;DHT22;988;48.016;7.800;2022-10-31T07:35:42;15.60;99.90
1976;DHT22;988;48.016;7.800;2022-10-31T07:38:11;15.90;99.90
1976;DHT22;988;48.016;7.800;2022-10-31T07:40:37;16.10;99.90
1976;DHT22;988;48.016;7.800;2022-10-31T07:43:03;16.10;99.90
1976;DHT22;988;48.016;7.800;2022-10-31T07:45:28;16.60;99.90
1976;DHT22;988;48.016;7.800;2022-10-31T07:47:54;17.00;99.90
1976;DHT22;988;48.016;7.800;2022-10-31T07:50:27;16.90;99.90
1976;DHT22;988;48.016;7.800;2022-10-31T07:53:01;16.80;99.90
1976;DHT22;988;48.016;7.800;2022-10-31T07:55:27;16.80;99.90
1976;DHT22;988;48.016;7.800;2022-10-31T07:58:02;17.20;99.90
1976;DHT22;988;48.016;7.800;2022-10-31T08:00:28;17.00;99.90
1976;DHT22;988;48.016;7.800;2022-10-31T08:05:23;16.90;99.90
1976;DHT22;988;48.016;7.800;2022-10-31T08:07:49;17.50;99.90
1976;DHT22;988;48.016;7.800;2022-10-31T08:10:15;17.40;99.90
1976;DHT22;988;48.016;7.800;2022-10-31T08:12:41;17.70;99.90
1976;DHT22;988;48.016;7.800;2022-10-31T08:15:07;18.00;99.90
1976;DHT22;988;48.016;7.800;2022-10-31T08:17:35;17.90;99.90
1976;DHT22;988;48.016;7.800;2022-10-31T08:20:01;18.20;99.90
1976;DHT22;988;48.016;7.800;2022-10-31T08:22:26;18.70;99.90
1976;DHT22;988;48.016;7.800;2022-10-31T08:24:52;18.60;99.90
1976;DHT22;988;48.016;7.800;2022-10-31T08:27:18;18.30;99.90
1976;DHT22;988;48.016;7.800;2022-10-31T08:29:43;18.00;99.90
1976;DHT22;988;48.016;7.800;2022-10-31T08:32:09;17.60;99.90
1976;DHT22;988;48.016;7.800;2022-10-31T08:34:34;17.60;99.90
1976;DHT22;988;48.016;7.800;2022-10-31T08:37:00;17.70;99.90
1976;DHT22;988;48.016;7.800;2022-10-31T08:39:25;17.60;99.90
1976;DHT22;988;48.016;7.800;2022-10-31T08:41:51;17.80;99.90
1976;DHT22;988;48.016;7.800;2022-10-31T08:44:16;17.50;99.90
1976;DHT22;988;48.016;7.800;2022-10-31T08:46:42;17.40;99.90
1976;DHT22;988;48.016;7.800;2022-10-31T08:49:07;17.60;99.90
1976;DHT22;988;48.016;7.800;2022-10-31T08:51:33;17.50;99.90
1976;DHT22;988;48.016;7.800;2022-10-31T08:53:59;17.80;99.90
1976;DHT22;988;48.016;7.800;2022-10-31T08:56:25;17.90;99.90
1976;DHT22;988;48.016;7.800;2022-10-31T08:58:53;18.40;99.90
1976;DHT22;988;48.016;7.800;2022-10-31T09:01:18;18.20;99.90
1976;DHT22;988;48.016;7.800;2022-10-31T09:03:44;18.40;99.90
1976;DHT22;988;48.016;7.800;2022-10-31T09:06:10;18.70;99.90
1976;DHT22;988;48.016;7.800;2022-10-31T09:08:37;18.40;99.90
1976;DHT22;988;48.016;7.800;2022-10-31T09:11:04;18.70;99.90
1976;DHT22;988;48.016;7.800;2022-10-31T09:13:31;19.20;99.90
1976;DHT22;988;48.016;7.800;2022-10-31T09:15:57;19.80;99.90
1976;DHT22;988;48.016;7.800;2022-10-31T09:18:24;20.20;99.60
1976;DHT22;988;48.016;7.800;2022-10-31T09:20:50;20.30;98.90
1976;DHT22;988;48.016;7.800;2022-10-31T09:23:18;20.30;98.50
1976;DHT22;988;48.016;7.800;2022-10-31T09:25:45;20.70;97.90
1976;DHT22;988;48.016;7.800;2022-10-31T09:28:12;20.80;95.60
1976;DHT22;988;48.016;7.800;2022-10-31T09:30:39;20.60;95.20
1976;DHT22;988;48.016;7.800;2022-10-31T09:33:11;20.70;95.00
1976;DHT22;988;48.016;7.800;2022-10-31T09:35:37;20.40;95.70
1976;DHT22;988;48.016;7.800;2022-10-31T09:38:05;20.30;95.50
1976;DHT22;988;48.016;7.800;2022-10-31T09:40:43;20.30;96.20
1976;DHT22;988;48.016;7.800;2022-10-31T09:52:13;19.70;98.60
1976;DHT22;988;48.016;7.800;2022-10-31T09:54:49;19.80;98.50
1976;DHT22;988;48.016;7.800;2022-10-31T09:57:22;20.30;98.40
1976;DHT22;988;48.016;7.800;2022-10-31T09:59:49;21.10;96.20
1976;DHT22;988;48.016;7.800;2022-10-31T10:05:02;22.20;93.20
1976;DHT22;988;48.016;7.800;2022-10-31T10:07:32;22.60;90.60
1976;DHT22;988;48.016;7.800;2022-10-31T10:10:02;22.60;89.30
1976;DHT22;988;48.016;7.800;2022-10-31T10:18:34;22.60;87.40
1976;DHT22;988;48.016;7.800;2022-10-31T10:23:51;21.50;89.50
1976;DHT22;988;48.016;7.800;2022-10-31T10:26:38;21.60;90.40
1976;DHT22;988;48.016;7.800;2022-10-31T10:29:23;20.80;91.90
1976;DHT22;988;48.016;7.800;2022-10-31T10:31:53;20.60;91.80
1976;DHT22;988;48.016;7.800;2022-10-31T10:34:27;20.70;91.70
1976;DHT22;988;48.016;7.800;2022-10-31T10:37:10;20.40;92.60
1976;DHT22;988;48.016;7.800;2022-10-31T10:39:44;19.90;93.60
1976;DHT22;988;48.016;7.800;2022-10-31T10:42:13;20.00;94.00
1976;DHT22;988;48.016;7.800;2022-10-31T10:44:59;19.70;95.10
1976;DHT22;988;48.016;7.800;2022-10-31T10:47:50;19.20;97.10
1976;DHT22;988;48.016;7.800;2022-10-31T10:50:19;19.10;97.20
1976;DHT22;988;48.016;7.800;2022-10-31T10:55:48;18.70;98.00
1976;DHT22;988;48.016;7.800;2022-10-31T10:58:15;18.80;98.20
1976;DHT22;988;48.016;7.800;2022-10-31T11:00:42;19.00;98.50
1976;DHT22;988;48.016;7.800;2022-10-31T11:03:09;19.20;98.00
1976;DHT22;988;48.016;7.800;2022-10-31T11:08:34;19.60;96.50
1976;DHT22;988;48.016;7.800;2022-10-31T11:11:08;19.90;96.50
1976;DHT22;988;48.016;7.800;2022-10-31T11:13:36;20.30;95.30
1976;DHT22;988;48.016;7.800;2022-10-31T11:16:08;20.20;95.40
1976;DHT22;988;48.016;7.800;2022-10-31T11:18:47;20.20;94.90
1976;DHT22;988;48.016;7.800;2022-10-31T11:21:28;20.60;94.50
1976;DHT22;988;48.016;7.800;2022-10-31T11:26:37;21.10;93.50
1976;DHT22;988;48.016;7.800;2022-10-31T11:29:22;21.80;93.00
1976;DHT22;988;48.016;7.800;2022-10-31T11:31:51;22.60;91.80
1976;DHT22;988;48.016;7.800;2022-10-31T11:34:30;23.20;90.60
1976;DHT22;988;48.016;7.800;2022-10-31T11:37:13;25.30;84.50
1976;DHT22;988;48.016;7.800;2022-10-31T11:39:43;32.80;62.50
1976;DHT22;988;48.016;7.800;2022-10-31T11:42:10;34.20;51.20
1976;DHT22;988;48.016;7.800;2022-10-31T11:44:35;34.40;50.40
1976;DHT22;988;48.016;7.800;2022-10-31T11:47:03;31.10;53.80
1976;DHT22;988;48.016;7.800;2022-10-31T11:49:37;29.50;55.30
1976;DHT22;988;48.016;7.800;2022-10-31T11:52:27;30.60;55.30
1976;DHT22;988;48.016;7.800;2022-10-31T11:57:49;32.70;50.00
1976;DHT22;988;48.016;7.800;2022-10-31T12:00:34;37.30;45.50
1976;DHT22;988;48.016;7.800;2022-10-31T12:03:12;40.50;38.00
1976;DHT22;988;48.016;7.800;2022-10-31T12:05:39;41.20;37.80
1976;DHT22;988;48.016;7.800;2022-10-31T12:08:11;43.60;35.40
1976;DHT22;988;48.016;7.800;2022-10-31T12:13:54;45.10;31.90
1976;DHT22;988;48.016;7.800;2022-10-31T12:16:29;46.60;30.20
1976;DHT22;988;48.016;7.800;2022-10-31T12:18:58;46.20;28.70
1976;DHT22;988;48.016;7.800;2022-10-31T12:24:17;46.50;29.80
1976;DHT22;988;48.016;7.800;2022-10-31T12:27:03;45.70;29.50
1976;DHT22;988;48.016;7.800;2022-10-31T12:40:07;44.50;30.00
1976;DHT22;988;48.016;7.800;2022-10-31T12:59:34;44.20;30.10
1976;DHT22;988;48.016;7.800;2022-10-31T13:08:18;34.90;40.00
1976;DHT22;988;48.016;7.800;2022-10-31T13:13:43;30.60;48.10
1976;DHT22;988;48.016;7.800;2022-10-31T13:16:19;27.40;52.70
1976;DHT22;988;48.016;7.800;2022-10-31T13:18:57;25.90;56.30
1976;DHT22;988;48.016;7.800;2022-10-31T13:21:35;25.20;58.10
1976;DHT22;988;48.016;7.800;2022-10-31T13:24:07;24.60;61.10
1976;DHT22;988;48.016;7.800;2022-10-31T13:26:47;24.10;62.40
1976;DHT22;988;48.016;7.800;2022-10-31T13:29:26;23.90;63.50
1976;DHT22;988;48.016;7.800;2022-10-31T13:31:52;26.30;61.10
1976;DHT22;988;48.016;7.800;2022-10-31T13:34:38;26.60;58.00
1976;DHT22;988;48.016;7.800;2022-10-31T13:37:30;26.30;58.50
1976;DHT22;988;48.016;7.800;2022-10-31T13:45:25;30.20;53.20
1976;DHT22;988;48.016;7.800;2022-10-31T13:50:54;27.90;55.80
1976;DHT22;988;48.016;7.800;2022-10-31T13:53:22;26.50;57.20
1976;DHT22;988;48.016;7.800;2022-10-31T13:56:15;25.80;58.10
1976;DHT22;988;48.016;7.800;2022-10-31T14:01:37;24.80;62.00
1976;DHT22;988;48.016;7.800;2022-10-31T14:04:18;24.30;63.30
1976;DHT22;988;48.016;7.800;2022-10-31T14:07:06;23.70;64.70
1976;DHT22;988;48.016;7.800;2022-10-31T14:09:36;23.60;65.90
1976;DHT22;988;48.016;7.800;2022-10-31T14:12:10;23.50;66.20
1976;DHT22;988;48.016;7.800;2022-10-31T14:14:49;23.30;67.00
1976;DHT22;988;48.016;7.800;2022-10-31T14:17:22;23.00;68.80
1976;DHT22;988;48.016;7.800;2022-10-31T14:20:48;23.40;68.60
1976;DHT22;988;48.016;7.800;2022-10-31T14:22:48;23.80;68.20
1976;DHT22;988;48.016;7.800;2022-10-31T14:25:35;25.10;65.00
1976;DHT22;988;48.016;7.800;2022-10-31T14:28:49;25.40;63.40
1976;DHT22;988;48.016;7.800;2022-10-31T14:30:58;25.00;64.50
1976;DHT22;988;48.016;7.800;2022-10-31T14:33:29;25.40;64.10
1976;DHT22;988;48.016;7.800;2022-10-31T14:36:00;26.10;62.00
1976;DHT22;988;48.016;7.800;2022-10-31T14:38:52;25.90;61.70
1976;DHT22;988;48.016;7.800;2022-10-31T14:47:09;24.80;64.40
1976;DHT22;988;48.016;7.800;2022-10-31T14:49:48;24.40;65.90
1976;DHT22;988;48.016;7.800;2022-10-31T14:52:17;24.00;66.10
1976;DHT22;988;48.016;7.800;2022-10-31T14:54:50;23.40;68.30
1976;DHT22;988;48.016;7.800;2022-10-31T14:57:32;23.20;68.70
1976;DHT22;988;48.016;7.800;2022-10-31T15:00:05;22.90;69.80
1976;DHT22;988;48.016;7.800;2022-10-31T15:05:21;22.20;72.00
1976;DHT22;988;48.016;7.800;2022-10-31T15:07:57;22.00;73.40
1976;DHT22;988;48.016;7.800;2022-10-31T15:10:27;21.70;73.80
1976;DHT22;988;48.016;7.800;2022-10-31T15:12:55;21.40;75.10
1976;DHT22;988;48.016;7.800;2022-10-31T15:15:23;20.90;76.60
1976;DHT22;988;48.016;7.800;2022-10-31T15:17:54;20.60;77.50
1976;DHT22;988;48.016;7.800;2022-10-31T15:20:22;20.20;79.30
1976;DHT22;988;48.016;7.800;2022-10-31T15:22:49;20.00;80.60
1976;DHT22;988;48.016;7.800;2022-10-31T15:25:21;19.80;80.30
1976;DHT22;988;48.016;7.800;2022-10-31T15:27:48;19.60;81.90
1976;DHT22;988;48.016;7.800;2022-10-31T15:30:24;19.40;82.90
1976;DHT22;988;48.016;7.800;2022-10-31T15:32:50;19.20;85.20
1976;DHT22;988;48.016;7.800;2022-10-31T15:35:29;19.30;88.20
1976;DHT22;988;48.016;7.800;2022-10-31T15:37:56;18.90;88.30
1976;DHT22;988;48.016;7.800;2022-10-31T15:40:24;18.70;90.40
1976;DHT22;988;48.016;7.800;2022-10-31T15:43:04;18.50;91.00
1976;DHT22;988;48.016;7.800;2022-10-31T15:45:32;18.30;92.20
1976;DHT22;988;48.016;7.800;2022-10-31T15:48:03;18.20;93.50
1976;DHT22;988;48.016;7.800;2022-10-31T15:52:57;17.90;94.60
1976;DHT22;988;48.016;7.800;2022-10-31T15:55:26;17.80;95.80
1976;DHT22;988;48.016;7.800;2022-10-31T15:58:14;17.50;98.20
1976;DHT22;988;48.016;7.800;2022-10-31T16:00:41;17.40;99.90
1976;DHT22;988;48.016;7.800;2022-10-31T16:05:53;17.40;99.90
1976;DHT22;988;48.016;7.800;2022-10-31T16:11:01;17.10;99.90
1976;DHT22;988;48.016;7.800;2022-10-31T16:13:59;16.80;99.90
1976;DHT22;988;48.016;7.800;2022-10-31T16:16:26;16.50;99.90
1976;DHT22;988;48.016;7.800;2022-10-31T16:18:54;16.40;99.90
1976;DHT22;988;48.016;7.800;2022-10-31T16:21:26;16.40;99.90
1976;DHT22;988;48.016;7.800;2022-10-31T16:23:57;16.30;99.90
1976;DHT22;988;48.016;7.800;2022-10-31T16:26:23;16.20;99.90
1976;DHT22;988;48.016;7.800;2022-10-31T16:28:57;15.90;99.90
1976;DHT22;988;48.016;7.800;2022-10-31T16:31:37;15.90;99.90
1976;DHT22;988;48.016;7.800;2022-10-31T16:34:22;15.80;99.90
1976;DHT22;988;48.016;7.800;2022-10-31T16:36:48;15.90;99.90
1976;DHT22;988;48.016;7.800;2022-10-31T16:39:14;15.90;99.90
1976;DHT22;988;48.016;7.800;2022-10-31T16:41:45;15.90;99.90
1976;DHT22;988;48.016;7.800;2022-10-31T16:44:24;15.70;99.90
1976;DHT22;988;48.016;7.800;2022-10-31T16:47:08;15.50;99.90
1976;DHT22;988;48.016;7.800;2022-10-31T16:49:34;15.40;99.90
1976;DHT22;988;48.016;7.800;2022-10-31T16:52:00;15.40;99.90
1976;DHT22;988;48.016;7.800;2022-10-31T16:54:25;15.40;99.90
1976;DHT22;988;48.016;7.800;2022-10-31T16:56:51;15.50;99.90
1976;DHT22;988;48.016;7.800;2022-10-31T16:59:16;15.40;99.90
1976;DHT22;988;48.016;7.800;2022-10-31T17:01:48;15.20;99.90
1976;DHT22;988;48.016;7.800;2022-10-31T17:04:14;15.20;99.90
1976;DHT22;988;48.016;7.800;2022-10-31T17:06:41;15.10;99.90
1976;DHT22;988;48.016;7.800;2022-10-31T17:09:07;15.10;99.90
1976;DHT22;988;48.016;7.800;2022-10-31T17:11:33;15.40;99.90
1976;DHT22;988;48.016;7.800;2022-10-31T17:13:59;15.30;99.90
1976;DHT22;988;48.016;7.800;2022-10-31T17:16:26;15.30;99.90
1976;DHT22;988;48.016;7.800;2022-10-31T17:18:51;15.30;99.90
1976;DHT22;988;48.016;7.800;2022-10-31T17:21:20;15.20;99.90
1976;DHT22;988;48.016;7.800;2022-10-31T17:23:48;15.20;99.90
1976;DHT22;988;48.016;7.800;2022-10-31T17:26:13;15.40;99.90
1976;DHT22;988;48.016;7.800;2022-10-31T17:28:39;15.30;99.90
1976;DHT22;988;48.016;7.800;2022-10-31T17:31:05;15.00;99.90
1976;DHT22;988;48.016;7.800;2022-10-31T17:33:30;15.00;99.90
1976;DHT22;988;48.016;7.800;2022-10-31T17:35:56;15.20;99.90
1976;DHT22;988;48.016;7.800;2022-10-31T17:38:21;15.00;99.90
1976;DHT22;988;48.016;7.800;2022-10-31T17:40:47;14.80;99.90
1976;DHT22;988;48.016;7.800;2022-10-31T17:43:13;14.80;99.90
1976;DHT22;988;48.016;7.800;2022-10-31T17:45:40;14.70;99.90
1976;DHT22;988;48.016;7.800;2022-10-31T17:48:11;14.60;99.90
1976;DHT22;988;48.016;7.800;2022-10-31T17:50:37;14.60;99.90
1976;DHT22;988;48.016;7.800;2022-10-31T17:53:03;14.50;99.90
1976;DHT22;988;48.016;7.800;2022-10-31T17:55:29;14.50;99.90
1976;DHT22;988;48.016;7.800;2022-10-31T17:57:55;14.30;99.90
1976;DHT22;988;48.016;7.800;2022-10-31T18:00:20;14.20;99.90
1976;DHT22;988;48.016;7.800;2022-10-31T18:02:48;14.30;99.90
1976;DHT22;988;48.016;7.800;2022-10-31T18:05:14;14.30;99.90
1976;DHT22;988;48.016;7.800;2022-10-31T18:07:39;14.20;99.90
1976;DHT22;988;48.016;7.800;2022-10-31T18:10:05;14.30;99.90
1976;DHT22;988;48.016;7.800;2022-10-31T18:12:31;14.20;99.90
1976;DHT22;988;48.016;7.800;2022-10-31T18:14:59;14.20;99.90
1976;DHT22;988;48.016;7.800;2022-10-31T18:17:24;14.40;99.90
1976;DHT22;988;48.016;7.800;2022-10-31T18:19:50;14.30;99.90
1976;DHT22;988;48.016;7.800;2022-10-31T18:22:16;14.40;99.90
1976;DHT22;988;48.016;7.800;2022-10-31T18:24:41;14.60;99.90
1976;DHT22;988;48.016;7.800;2022-10-31T18:27:07;14.60;99.90
1976;DHT22;988;48.016;7.800;2022-10-31T18:29:32;14.70;99.90
1976;DHT22;988;48.016;7.800;2022-10-31T18:31:58;14.90;99.90
1976;DHT22;988;48.016;7.800;2022-10-31T18:34:24;15.00;99.90
1976;DHT22;988;48.016;7.800;2022-10-31T18:36:50;15.10;99.90
1976;DHT22;988;48.016;7.800;2022-10-31T18:39:17;15.20;99.90
1976;DHT22;988;48.016;7.800;2022-10-31T18:41:42;15.20;99.90
1976;DHT22;988;48.016;7.800;2022-10-31T18:44:08;15.20;99.90
1976;DHT22;988;48.016;7.800;2022-10-31T18:46:34;15.40;99.90